createdAt,value
2023-05-02T00:00:24.470Z,98330
2023-05-02T00:12:24.486Z,98330
2023-05-02T00:24:24.431Z,98340
2023-05-02T00:36:24.549Z,98340
2023-05-02T00:48:24.422Z,98350
2023-05-02T01:00:25.241Z,98350
2023-05-02T01:12:24.531Z,98350
2023-05-02T01:24:24.513Z,98340
2023-05-02T01:36:24.487Z,98350
2023-05-02T01:48:24.452Z,98370
2023-05-02T02:00:24.418Z,98380
2023-05-02T02:12:24.528Z,98390
2023-05-02T02:24:24.505Z,98400
2023-05-02T02:36:24.532Z,98410
2023-05-02T02:48:24.532Z,98420
2023-05-02T03:00:24.554Z,98430
2023-05-02T03:12:24.491Z,98430
2023-05-02T03:24:24.544Z,98450
2023-05-02T03:36:24.427Z,98460
2023-05-02T03:48:24.529Z,98470
2023-05-02T04:00:24.530Z,98470
2023-05-02T04:12:24.420Z,98480
2023-05-02T04:24:24.524Z,98490
2023-05-02T04:36:24.473Z,98510
2023-05-02T04:48:24.511Z,98530
2023-05-02T05:00:25.017Z,98550
2023-05-02T05:12:24.466Z,98560
2023-05-02T05:24:24.476Z,98590
2023-05-02T05:36:24.525Z,98590
2023-05-02T05:48:24.500Z,98610
2023-05-02T06:00:24.526Z,98620
2023-05-02T06:12:24.436Z,98630
2023-05-02T06:24:24.534Z,98660
2023-05-02T06:36:24.519Z,98660
2023-05-02T06:48:24.462Z,98690
2023-05-02T07:00:24.480Z,98710
2023-05-02T07:12:24.521Z,98720
2023-05-02T07:24:24.551Z,98740
2023-05-02T07:36:24.534Z,98740
2023-05-02T07:48:26.190Z,98740
2023-05-02T08:00:24.516Z,98750
2023-05-02T08:12:24.524Z,98760
2023-05-02T08:24:24.416Z,98780
2023-05-02T08:36:24.440Z,98790
2023-05-02T08:48:24.523Z,98810
2023-05-02T09:00:24.429Z,98800
2023-05-02T09:12:24.523Z,98820
2023-05-02T09:24:24.530Z,98850
2023-05-02T09:36:24.509Z,98860
2023-05-02T09:48:24.532Z,98880
2023-05-02T10:00:24.544Z,98870
2023-05-02T10:12:24.517Z,98880
2023-05-02T10:24:24.546Z,98890
2023-05-02T10:36:24.444Z,98890
2023-05-02T10:48:24.485Z,98900
2023-05-02T11:00:24.439Z,98920
2023-05-02T11:12:24.430Z,98930
2023-05-02T11:24:24.423Z,98930
2023-05-02T11:36:24.511Z,98930
2023-05-02T11:48:24.426Z,98950
2023-05-02T12:00:24.509Z,98950
2023-05-02T12:12:24.428Z,98960
2023-05-02T12:24:24.434Z,98960
2023-05-02T12:36:24.419Z,98970
2023-05-02T12:48:24.550Z,98980
2023-05-02T13:00:24.460Z,99000
2023-05-02T13:12:24.429Z,98990
2023-05-02T13:24:24.543Z,99000
2023-05-02T13:36:24.538Z,99000
2023-05-02T13:48:24.424Z,99000
2023-05-02T14:00:24.526Z,99000
2023-05-02T14:12:24.421Z,99020
2023-05-02T14:24:24.447Z,99010
2023-05-02T14:36:24.451Z,99020
2023-05-02T14:48:24.533Z,99030
2023-05-02T15:00:24.511Z,99020
2023-05-02T15:12:24.539Z,99020
2023-05-02T15:24:24.524Z,99000
2023-05-02T15:36:24.429Z,99020
2023-05-02T15:48:24.548Z,99010
2023-05-02T16:00:24.478Z,99030
2023-05-02T16:12:24.417Z,99040
2023-05-02T16:24:24.551Z,99030
2023-05-02T16:36:24.432Z,99030
2023-05-02T16:48:24.434Z,99040
2023-05-02T17:00:24.536Z,99050
2023-05-02T17:12:24.532Z,99040
2023-05-02T17:24:24.545Z,99050
2023-05-02T17:36:24.490Z,99060
2023-05-02T17:48:24.669Z,99050
2023-05-02T18:00:24.435Z,99060
2023-05-02T18:12:24.416Z,99060
2023-05-02T18:24:24.474Z,99050
2023-05-02T18:36:24.452Z,99070
2023-05-02T18:48:24.551Z,99080
2023-05-02T19:00:24.538Z,99090
2023-05-02T19:12:24.515Z,99080
2023-05-02T19:24:24.551Z,99090
2023-05-02T19:36:24.526Z,99100
2023-05-02T19:48:24.603Z,99100
2023-05-02T20:00:24.516Z,99120
2023-05-02T20:12:24.531Z,99120
2023-05-02T20:24:24.420Z,99130
2023-05-02T20:36:24.529Z,99130
2023-05-02T20:48:24.463Z,99150
2023-05-02T21:00:24.551Z,99140
2023-05-02T21:12:24.549Z,99150
2023-05-02T21:24:24.434Z,99150
2023-05-02T21:36:24.536Z,99150
2023-05-02T21:48:24.536Z,99160
2023-05-02T22:00:24.520Z,99150
2023-05-02T22:12:24.519Z,99160
2023-05-02T22:24:24.549Z,99170
2023-05-02T22:36:24.423Z,99170
2023-05-02T22:48:24.423Z,99170
2023-05-02T23:00:24.440Z,99170
2023-05-02T23:12:24.539Z,99170
2023-05-02T23:24:24.505Z,99170
2023-05-02T23:36:24.533Z,99170
2023-05-02T23:48:24.438Z,99160
